Time;durP1;ratioP1;P1;durP2;ratioP2;P2;SDS_P1;SDS_P2;PMS_P1;PMS_P2;Temp;Humidity;BMP_temperature;BMP_pressure;BME280_temperature;BME280_humidity;BME280_pressure;Samples;Min_cycle;Max_cycle;Signal;HPM_P1;HPM_P2
2021/01/03 00:01:24;;;;;;;35.58;16.38;;;;;;;1.33;91.95;100762.88;5093139;28;20028;-74
2021/01/03 00:03:50;;;;;;;49.70;20.83;;;;;;;1.31;92.26;100766.22;5093069;28;20031;-73
2021/01/03 00:06:15;;;;;;;46.25;23.75;;;;;;;1.32;91.91;100767.94;5092832;28;20024;-74
2021/01/03 00:08:41;;;;;;;35.53;13.88;;;;;;;1.28;91.38;100767.03;5092945;28;20028;-73
2021/01/03 00:11:06;;;;;;;46.70;20.83;;;;;;;1.29;91.77;100762.78;5091625;28;20024;-73
2021/01/03 00:13:31;;;;;;;38.42;19.55;;;;;;;1.27;91.37;100764.44;5092991;28;20442;-73
2021/01/03 00:15:56;;;;;;;49.13;23.27;;;;;;;1.26;91.25;100767.81;5091736;28;20020;-73
2021/01/03 00:18:22;;;;;;;44.00;21.67;;;;;;;1.27;91.61;100764.44;5091543;28;20024;-73
2021/01/03 00:20:47;;;;;;;53.70;23.02;;;;;;;1.25;91.93;100766.09;5091954;28;20122;-73
2021/01/03 00:23:12;;;;;;;32.40;16.05;;;;;;;1.27;91.17;100769.56;5092789;28;20454;-73
2021/01/03 00:25:38;;;;;;;45.42;22.23;;;;;;;1.28;91.86;100776.38;5074587;28;20020;-73
2021/01/03 00:28:03;;;;;;;41.80;21.20;;;;;;;1.25;91.39;100766.09;5092847;28;20032;-73
2021/01/03 00:30:29;;;;;;;42.08;21.05;;;;;;;1.27;91.51;100772.97;5093230;28;20024;-73
2021/01/03 00:32:55;;;;;;;42.80;19.83;;;;;;;1.26;91.40;100771.25;5091645;28;20119;-73
2021/01/03 00:35:26;;;;;;;42.58;22.23;;;;;;;1.25;91.80;100772.06;5091553;28;20141;-73
2021/01/03 00:37:51;;;;;;;48.38;23.73;;;;;;;1.26;91.53;100778.03;5091661;28;20020;-73
2021/01/03 00:40:19;;;;;;;44.08;20.85;;;;;;;1.31;91.37;100772.19;5076446;28;20141;-73
2021/01/03 00:42:44;;;;;;;49.30;23.75;;;;;;;1.25;91.20;100773.75;5078312;28;20484;-73
2021/01/03 00:45:10;;;;;;;43.90;21.35;;;;;;;1.28;91.40;100771.28;5095010;28;20072;-73
2021/01/03 00:47:36;;;;;;;44.08;21.63;;;;;;;1.27;91.09;100774.66;5095122;28;20097;-73
2021/01/03 00:50:04;;;;;;;54.70;24.33;;;;;;;1.24;91.43;100775.47;5096216;28;20479;-73
2021/01/03 00:52:29;;;;;;;47.30;21.20;;;;;;;1.26;91.07;100775.47;5094882;28;20447;-73
2021/01/03 00:54:54;;;;;;;42.25;20.95;;;;;;;1.28;90.87;100768.72;5094855;28;20062;-73
2021/01/03 00:57:20;;;;;;;42.40;19.02;;;;;;;1.28;91.11;100777.25;5094775;28;20069;-73
2021/01/03 00:59:45;;;;;;;43.55;20.80;;;;;;;1.27;91.05;100769.56;5095995;28;20020;-73
2021/01/03 01:02:10;;;;;;;51.00;23.55;;;;;;;1.26;91.64;100773.81;5096053;28;20055;-73
2021/01/03 01:04:36;;;;;;;40.97;19.13;;;;;;;1.31;91.72;100773.91;5094795;28;20020;-73
2021/01/03 01:07:01;;;;;;;49.13;23.45;;;;;;;1.30;91.39;100779.84;5094904;28;20048;-73
2021/01/03 01:09:26;;;;;;;44.95;22.00;;;;;;;1.29;91.30;100783.22;5094610;28;20440;-73
2021/01/03 01:11:53;;;;;;;45.53;22.60;;;;;;;1.28;91.90;100786.59;5077610;28;20032;-73
2021/01/03 01:14:19;;;;;;;48.40;22.00;;;;;;;1.32;91.04;100790.94;5094539;28;20547;-73
2021/01/03 01:16:44;;;;;;;45.22;22.65;;;;;;;1.32;91.62;100796.06;5095754;28;20107;-73
2021/01/03 01:19:10;;;;;;;55.25;24.92;;;;;;;1.25;91.79;100795.06;5095989;28;20157;-73
2021/01/03 01:21:35;;;;;;;51.47;24.58;;;;;;;1.28;91.91;100791.72;5094475;28;20073;-73
2021/01/03 01:24:00;;;;;;;48.20;22.48;;;;;;;1.30;91.58;100790.06;5095576;28;20024;-73
2021/01/03 01:26:25;;;;;;;59.13;25.85;;;;;;;1.27;91.46;100790.00;5095513;28;20070;-73
2021/01/03 01:28:51;;;;;;;48.38;21.70;;;;;;;1.29;91.22;100794.31;5094755;28;20035;-74
2021/01/03 01:31:16;;;;;;;51.95;25.98;;;;;;;1.29;92.05;100791.75;5095455;28;20032;-73
2021/01/03 01:33:41;;;;;;;54.17;21.23;;;;;;;1.33;91.64;100790.13;5094225;28;20016;-73
2021/01/03 01:36:07;;;;;;;56.13;23.48;;;;;;;1.32;91.54;100789.25;5094235;28;20431;-73
2021/01/03 01:38:33;;;;;;;52.88;22.65;;;;;;;1.34;91.55;100789.31;5095390;28;20492;-73
2021/01/03 01:40:58;;;;;;;39.88;19.38;;;;;;;1.34;91.54;100789.31;5094296;28;20020;-73
2021/01/03 01:43:24;;;;;;;49.03;23.33;;;;;;;1.35;91.39;100793.56;5093964;28;20020;-73
2021/01/03 01:45:49;;;;;;;54.33;23.30;;;;;;;1.31;91.61;100794.34;5093781;28;20020;-73
2021/01/03 01:48:21;;;;;;;46.75;20.23;;;;;;;1.34;91.83;100791.84;5076908;28;20028;-73
2021/01/03 01:50:50;;;;;;;66.47;28.17;;;;;;;1.32;91.83;100790.94;5093598;28;20024;-73
2021/01/03 01:53:29;;;;;;;55.85;25.77;;;;;;;1.32;91.56;100788.38;5076569;28;20491;-73
2021/01/03 01:56:20;;;;;;;58.08;26.15;;;;;;;1.28;91.75;100791.72;5093837;28;20110;-74
2021/01/03 01:59:01;;;;;;;48.53;22.25;;;;;;;1.30;91.65;100787.50;5094592;28;20089;-73
2021/01/03 02:01:37;;;;;;;54.63;24.60;;;;;;;1.29;91.74;100790.88;5093786;28;20020;-74
2021/01/03 02:04:08;;;;;;;56.50;26.17;;;;;;;1.28;92.09;100784.06;5093850;28;20020;-73
2021/01/03 02:06:44;;;;;;;50.95;24.05;;;;;;;1.29;91.58;100789.22;5093642;28;20016;-73
2021/01/03 02:09:13;;;;;;;51.80;19.40;;;;;;;1.23;92.39;100788.19;5093681;28;20024;-73
2021/01/03 02:11:39;;;;;;;55.53;24.75;;;;;;;1.25;92.08;100783.97;5076570;28;20476;-73
2021/01/03 02:14:05;;;;;;;51.75;24.25;;;;;;;1.17;92.12;100777.81;5076210;28;20170;-73
2021/01/03 02:16:34;;;;;;;49.40;25.33;;;;;;;1.15;92.25;100777.78;5076435;28;20016;-73
2021/01/03 02:19:00;;;;;;;51.78;23.45;;;;;;;1.10;92.56;100787.03;5093312;28;20479;-73
2021/01/03 02:21:46;;;;;;;55.92;23.08;;;;;;;1.00;92.69;100779.97;5093420;28;20103;-73
2021/01/03 02:24:22;;;;;;;61.20;24.83;;;;;;;0.96;92.53;100778.19;5123551;23;20402;-78
2021/01/03 02:26:51;;;;;;;59.90;23.33;;;;;;;0.97;92.77;100785.00;5093333;28;20032;-77
2021/01/03 02:29:19;;;;;;;55.65;24.30;;;;;;;1.01;92.84;100785.13;5076290;28;20368;-77
2021/01/03 02:31:51;;;;;;;56.97;23.85;;;;;;;1.01;92.63;100789.38;5093261;28;20081;-77
2021/01/03 02:34:38;;;;;;;55.85;24.52;;;;;;;1.04;92.71;100790.28;5093422;28;20028;-78
2021/01/03 02:37:11;;;;;;;55.00;24.58;;;;;;;1.03;92.68;100785.16;5093311;28;20019;-79
2021/01/03 02:39:45;;;;;;;53.08;24.02;;;;;;;1.10;92.80;100789.59;5078842;28;20020;-78
2021/01/03 02:42:18;;;;;;;52.35;24.55;;;;;;;1.09;92.80;100795.53;5078635;28;20070;-79
2021/01/03 02:44:43;;;;;;;51.85;23.30;;;;;;;1.08;92.60;100794.66;5078444;28;20028;-79
2021/01/03 02:47:09;;;;;;;58.95;24.60;;;;;;;1.08;92.59;100793.81;5095130;28;20395;-78
2021/01/03 02:49:35;;;;;;;58.25;25.05;;;;;;;1.09;92.40;100792.97;5095275;28;20065;-79
2021/01/03 02:52:02;;;;;;;58.05;23.63;;;;;;;1.11;92.28;100792.19;5078119;28;20560;-78
2021/01/03 02:54:27;;;;;;;52.75;24.20;;;;;;;1.15;92.11;100785.47;5095181;28;20072;-79
2021/01/03 02:56:52;;;;;;;47.95;21.15;;;;;;;1.12;92.60;100783.69;5095291;28;20103;-78
2021/01/03 02:59:18;;;;;;;63.83;25.38;;;;;;;1.13;92.53;100785.41;5095230;28;20088;-79
2021/01/03 03:01:43;;;;;;;53.42;22.90;;;;;;;1.20;92.13;100788.09;5094971;28;20020;-78
2021/01/03 03:04:08;;;;;;;61.33;23.15;;;;;;;1.21;92.39;100779.63;5093888;28;20024;-80
2021/01/03 03:06:33;;;;;;;42.60;20.75;;;;;;;1.22;91.76;100783.91;5094935;28;20024;-79
2021/01/03 03:08:59;;;;;;;41.47;15.05;;;;;;;1.18;91.95;100787.22;5077587;28;20036;-78
2021/01/03 03:11:24;;;;;;;46.20;21.05;;;;;;;1.22;92.03;100786.47;5078173;28;20019;-78
2021/01/03 03:13:49;;;;;;;45.20;21.73;;;;;;;1.22;91.76;100789.88;5095642;28;20391;-79
2021/01/03 03:16:18;;;;;;;48.53;22.35;;;;;;;1.22;91.91;100781.34;5080174;28;20052;-79
2021/01/03 03:18:43;;;;;;;47.72;22.15;;;;;;;1.21;91.82;100784.75;5095593;28;20024;-78
2021/01/03 03:21:09;;;;;;;38.95;16.50;;;;;;;1.20;91.54;100783.00;5094989;28;20020;-78
2021/01/03 03:23:34;;;;;;;41.15;18.23;;;;;;;1.18;91.48;100790.63;5095250;28;20056;-79
2021/01/03 03:25:59;;;;;;;53.13;22.75;;;;;;;1.16;91.76;100789.72;5077694;28;20031;-79
2021/01/03 03:28:24;;;;;;;44.05;19.92;;;;;;;1.18;91.76;100790.63;5077802;28;20111;-78
2021/01/03 03:30:50;;;;;;;41.72;19.63;;;;;;;1.19;91.66;100788.94;5095328;28;20026;-78
2021/01/03 03:33:15;;;;;;;45.78;20.85;;;;;;;1.15;91.39;100781.22;5077851;28;20027;-78
2021/01/03 03:35:40;;;;;;;43.40;17.83;;;;;;;1.16;91.59;100784.63;5077587;28;20032;-79
2021/01/03 03:38:07;;;;;;;46.38;22.25;;;;;;;1.20;92.03;100778.78;5077701;28;20031;-78
2021/01/03 03:40:33;;;;;;;51.53;23.90;;;;;;;1.10;91.94;100777.66;5096040;28;20035;-78
2021/01/03 03:42:58;;;;;;;51.08;23.65;;;;;;;1.10;91.90;100772.56;5077849;28;20020;-80
2021/01/03 03:45:24;;;;;;;42.20;18.60;;;;;;;1.13;92.15;100777.75;5076332;28;20028;-79
2021/01/03 03:47:49;;;;;;;49.55;21.40;;;;;;;1.10;91.96;100777.66;5076893;28;20020;-78
2021/01/03 03:50:18;;;;;;;56.40;23.25;;;;;;;1.13;92.41;100771.78;5094291;28;20062;-78
2021/01/03 03:52:44;;;;;;;40.67;15.18;;;;;;;1.11;92.18;100764.09;5077213;28;20020;-79
2021/01/03 03:55:10;;;;;;;44.88;19.30;;;;;;;1.08;92.14;100774.25;5093911;28;20035;-79
2021/01/03 03:57:35;;;;;;;48.17;20.33;;;;;;;1.10;92.18;100785.34;5093674;28;20024;-79
2021/01/03 04:00:07;;;;;;;50.42;21.02;;;;;;;1.10;92.05;100775.13;5076863;28;20111;-79
2021/01/03 04:02:32;;;;;;;49.85;22.33;;;;;;;1.05;92.00;100771.63;5077761;28;20024;-79
2021/01/03 04:04:57;;;;;;;25.17;9.85;;;;;;;1.06;92.12;100768.22;5077125;28;20495;-79
2021/01/03 04:07:23;;;;;;;26.77;11.00;;;;;;;1.06;92.08;100773.31;5076822;28;20035;-79
2021/01/03 04:09:48;;;;;;;41.33;17.60;;;;;;;1.04;92.25;100771.56;5077325;28;20024;-79
2021/01/03 04:12:13;;;;;;;22.65;9.27;;;;;;;1.03;91.55;100777.50;5077256;28;20445;-79
2021/01/03 04:14:38;;;;;;;31.50;14.15;;;;;;;1.01;91.90;100771.50;5095468;28;20024;-79
2021/01/03 04:17:04;;;;;;;49.75;21.17;;;;;;;0.97;92.11;100764.59;5081677;28;20016;-78
2021/01/03 04:19:29;;;;;;;46.85;20.15;;;;;;;1.04;92.18;100769.00;5081274;28;20395;-78
2021/01/03 04:22:03;;;;;;;38.38;18.73;;;;;;;1.01;92.05;100772.34;5098018;28;20032;-78
2021/01/03 04:24:29;;;;;;;47.95;20.48;;;;;;;1.04;92.12;100774.97;5098537;28;20031;-79
2021/01/03 04:26:57;;;;;;;43.88;19.67;;;;;;;1.01;91.56;100767.25;5082135;28;20141;-78
2021/01/03 04:29:23;;;;;;;57.05;24.23;;;;;;;1.01;91.69;100777.44;5081545;28;20020;-78
2021/01/03 04:31:57;;;;;;;41.05;15.98;;;;;;;1.09;91.54;100775.09;5080974;28;20025;-79
2021/01/03 04:34:23;;;;;;;36.38;15.80;;;;;;;1.08;90.41;100769.13;5098189;28;20031;-79
2021/01/03 04:36:52;;;;;;;41.83;20.30;;;;;;;1.11;90.90;100774.31;5098265;28;20364;-78
2021/01/03 04:39:17;;;;;;;46.50;21.30;;;;;;;1.10;91.09;100781.91;5081521;28;20106;-78
2021/01/03 04:41:43;;;;;;;39.58;18.60;;;;;;;1.10;90.22;100780.22;5081170;28;20384;-78
2021/01/03 04:44:21;;;;;;;42.70;20.05;;;;;;;1.11;89.99;100776.88;5081024;28;20024;-79
2021/01/03 04:46:47;;;;;;;25.65;11.15;;;;;;;1.13;89.58;100780.31;5082780;28;20024;-78
2021/01/03 04:49:21;;;;;;;23.67;10.98;;;;;;;1.16;89.01;100776.97;5082334;28;20024;-79
2021/01/03 04:52:18;;;;;;;25.13;11.70;;;;;;;1.16;89.46;100784.63;5098674;28;20032;-78
2021/01/03 04:55:23;;;;;;;32.85;16.33;;;;;;;1.15;89.80;100788.88;5081517;28;20027;-79
2021/01/03 04:57:55;;;;;;;23.70;8.27;;;;;;;1.23;88.14;100783.06;5020983;28;20060;-78
2021/01/03 05:00:23;;;;;;;37.83;18.40;;;;;;;1.17;88.94;100791.47;5091612;28;20094;-79
2021/01/03 05:03:07;;;;;;;37.22;17.88;;;;;;;1.08;88.79;100784.47;5098023;28;20048;-78
2021/01/03 05:05:40;;;;;;;31.77;16.43;;;;;;;1.06;89.46;100791.22;5099206;28;20047;-79
2021/01/03 05:08:31;;;;;;;30.67;14.32;;;;;;;0.97;89.36;100787.56;5082666;28;20514;-79
2021/01/03 05:11:00;;;;;;;31.83;16.23;;;;;;;0.92;89.86;100787.44;5081428;28;20036;-78
2021/01/03 05:14:12;;;;;;;26.05;11.43;;;;;;;0.90;89.37;100784.00;5098569;28;20026;-78
2021/01/03 05:16:38;;;;;;;26.98;10.68;;;;;;;0.96;89.11;100789.25;5074624;28;20028;-78
2021/01/03 05:19:03;;;;;;;28.00;14.90;;;;;;;1.00;89.32;100795.31;5081029;28;20051;-78
2021/01/03 05:21:49;;;;;;;30.25;14.05;;;;;;;0.99;89.52;100789.34;5081400;28;20027;-78
2021/01/03 05:24:15;;;;;;;13.85;6.63;;;;;;;1.07;88.55;100797.16;5097732;28;20134;-79
2021/01/03 05:26:41;;;;;;;34.38;15.38;;;;;;;1.07;89.25;100803.13;5097558;28;20168;-78
2021/01/03 05:29:09;;;;;;;32.25;14.15;;;;;;;1.07;89.01;100799.72;5080321;28;20024;-78
2021/01/03 05:31:34;;;;;;;24.20;12.43;;;;;;;1.04;88.81;100797.97;5097711;28;20042;-79
2021/01/03 05:34:08;;;;;;;32.80;14.38;;;;;;;1.07;88.69;100799.72;5080599;28;20543;-79
2021/01/03 05:36:34;;;;;;;18.70;8.80;;;;;;;1.05;88.28;100802.25;5097676;28;20453;-78
2021/01/03 05:39:03;;;;;;;27.43;13.50;;;;;;;1.03;89.02;100803.91;5099115;28;20027;-78
2021/01/03 05:41:55;;;;;;;23.45;11.45;;;;;;;1.06;88.63;100803.13;5081273;28;20368;-79
2021/01/03 05:44:27;;;;;;;22.65;9.93;;;;;;;1.07;88.30;100804.84;5097580;28;20096;-79
2021/01/03 05:47:02;;;;;;;23.80;11.70;;;;;;;1.06;89.29;100808.22;5080484;28;20050;-79
2021/01/03 05:49:29;;;;;;;16.45;8.30;;;;;;;1.12;87.57;100811.78;5079946;28;20122;-78
2021/01/03 05:52:10;;;;;;;24.27;11.80;;;;;;;1.10;87.75;100810.88;5097069;28;20016;-78
2021/01/03 05:54:37;;;;;;;19.52;10.25;;;;;;;1.13;88.05;100813.50;5080504;28;20103;-79
2021/01/03 05:57:07;;;;;;;13.13;6.10;;;;;;;1.14;87.77;100816.94;5080680;28;20016;-79
2021/01/03 05:59:35;;;;;;;21.08;10.25;;;;;;;1.13;87.76;100813.50;5080050;28;20030;-79
2021/01/03 06:02:20;;;;;;;22.10;9.43;;;;;;;1.18;87.57;100817.88;5097164;28;20024;-79
2021/01/03 06:04:45;;;;;;;;;;;;;;;1.18;87.82;100815.31;5097095;28;20020;-79
2021/01/03 06:07:19;;;;;;;21.38;11.20;;;;;;;1.17;88.45;100816.13;5080138;28;20052;-79
2021/01/03 06:09:45;;;;;;;20.80;10.52;;;;;;;1.21;88.65;100818.81;5079886;28;20028;-79
2021/01/03 06:12:21;;;;;;;20.23;9.82;;;;;;;1.20;88.48;100821.31;5097367;28;20067;-79
2021/01/03 06:14:55;;;;;;;19.02;8.73;;;;;;;1.20;88.50;100823.88;5079786;28;20035;-79
2021/01/03 06:17:33;;;;;;;23.13;10.90;;;;;;;1.22;88.73;100814.56;5080408;28;20020;-79
2021/01/03 06:20:22;;;;;;;22.00;10.23;;;;;;;1.20;88.58;100818.75;5079572;28;20458;-78
2021/01/03 06:22:50;;;;;;;14.85;6.05;;;;;;;1.20;88.25;100823.88;5079407;28;20031;-79
2021/01/03 06:25:31;;;;;;;25.10;11.65;;;;;;;1.21;89.40;100820.50;5095883;28;20028;-79
2021/01/03 06:28:10;;;;;;;22.40;11.50;;;;;;;1.22;88.80;100822.22;5096262;28;20028;-79
2021/01/03 06:30:36;;;;;;;24.70;10.77;;;;;;;1.21;88.96;100830.72;5078984;28;20063;-79
2021/01/03 06:33:24;;;;;;;22.02;10.70;;;;;;;1.23;89.02;100829.06;5079513;28;20020;-79
2021/01/03 06:35:57;;;;;;;16.52;6.50;;;;;;;1.30;88.94;100836.06;5095707;28;20391;-79
2021/01/03 06:38:43;;;;;;;22.17;10.35;;;;;;;1.28;88.60;100836.00;5078708;28;20077;-78
2021/01/03 06:41:14;;;;;;;10.65;5.07;;;;;;;1.31;88.73;100838.63;5095391;28;20016;-79
2021/01/03 06:43:45;;;;;;;14.13;6.63;;;;;;;1.28;89.00;100842.81;5095585;28;20063;-79
2021/01/03 06:46:45;;;;;;;19.70;11.18;;;;;;;1.28;88.48;100838.56;5095597;28;20034;-79
2021/01/03 06:49:33;;;;;;;13.68;6.03;;;;;;;1.34;88.33;100840.41;5095170;28;20030;-79
2021/01/03 06:52:19;;;;;;;11.73;5.80;;;;;;;1.33;88.84;100833.56;5095325;28;20058;-79
2021/01/03 06:55:16;;;;;;;20.33;10.23;;;;;;;1.33;88.52;100843.81;5078301;28;20031;-79
2021/01/03 06:58:19;;;;;;;21.83;11.70;;;;;;;1.33;88.50;100843.81;5084846;28;20051;-79
2021/01/03 07:00:56;;;;;;;18.63;9.25;;;;;;;1.33;89.11;100846.34;5095524;28;20031;-79
2021/01/03 07:03:28;;;;;;;21.80;12.32;;;;;;;1.30;88.44;100847.13;5095271;28;20019;-79
2021/01/03 07:05:57;;;;;;;13.60;6.50;;;;;;;1.33;88.76;100842.09;5094958;28;20016;-79
2021/01/03 07:08:25;;;;;;;11.77;5.00;;;;;;;1.35;88.34;100850.66;5095900;28;20037;-78
2021/01/03 07:10:50;;;;;;;15.98;8.55;;;;;;;1.30;89.07;100847.13;5078504;28;20106;-78
2021/01/03 07:13:25;;;;;;;16.80;7.53;;;;;;;1.31;88.86;100843.75;5094196;28;20028;-79
2021/01/03 07:15:50;;;;;;;;;;;;;;;1.35;88.37;100849.78;5094623;28;20024;-79
2021/01/03 07:18:23;;;;;;;19.23;9.13;;;;;;;1.30;88.49;100846.28;5094300;28;19969;-79
2021/01/03 07:21:03;;;;;;;12.88;5.80;;;;;;;1.32;88.16;100844.59;5076857;28;20046;-79
2021/01/03 07:23:34;;;;;;;20.30;10.13;;;;;;;1.32;88.25;100839.50;5095587;28;20454;-79
2021/01/03 07:26:18;;;;;;;11.50;4.82;;;;;;;1.34;87.96;100842.97;5077224;28;20024;-79
2021/01/03 07:28:48;;;;;;;16.57;6.97;;;;;;;1.36;88.40;100843.88;5095570;28;20028;-78
2021/01/03 07:31:35;;;;;;;16.13;9.10;;;;;;;1.30;87.79;100851.38;5094324;28;20024;-79
2021/01/03 07:34:17;;;;;;;16.83;7.22;;;;;;;1.33;87.61;100854.03;5094927;28;20023;-79
2021/01/03 07:36:55;;;;;;;18.25;8.90;;;;;;;1.31;87.61;100853.97;5077548;28;20123;-79
2021/01/03 07:39:29;;;;;;;18.02;9.63;;;;;;;1.30;88.30;100852.25;5076871;28;20421;-78
2021/01/03 07:42:13;;;;;;;16.23;8.48;;;;;;;1.28;88.57;100853.03;5076933;28;20028;-78
2021/01/03 07:44:38;;;;;;;17.87;10.13;;;;;;;1.29;87.75;100857.31;5093843;28;20027;-80
2021/01/03 07:47:03;;;;;;;15.43;8.02;;;;;;;1.28;87.33;100858.16;5094476;28;20028;-80
2021/01/03 07:49:41;;;;;;;14.38;7.30;;;;;;;1.31;87.60;100859.06;5094990;28;20433;-80
2021/01/03 07:52:16;;;;;;;16.60;8.88;;;;;;;1.31;87.64;100863.31;5078222;28;20043;-79
2021/01/03 07:54:49;;;;;;;17.45;9.05;;;;;;;1.29;87.43;100865.88;5094556;28;20024;-79
2021/01/03 07:57:15;;;;;;;11.18;5.00;;;;;;;1.27;86.85;100864.09;5096949;28;20024;-80
2021/01/03 07:59:41;;;;;;;12.77;6.40;;;;;;;1.30;86.59;100862.47;5095534;28;20137;-79
2021/01/03 08:02:06;;;;;;;17.10;8.63;;;;;;;1.29;87.04;100873.53;5095594;28;20050;-79
2021/01/03 08:04:33;;;;;;;15.63;8.10;;;;;;;1.26;86.55;100878.56;5077711;28;20123;-79
2021/01/03 08:07:17;;;;;;;17.48;9.85;;;;;;;1.29;86.11;100864.97;5079411;28;20024;-80
2021/01/03 08:09:43;;;;;;;15.10;8.38;;;;;;;1.29;85.91;100860.75;5078606;28;20024;-80
2021/01/03 08:12:15;;;;;;;14.82;7.68;;;;;;;1.23;85.33;100860.59;5096697;28;20097;-80
2021/01/03 08:14:42;;;;;;;17.00;8.45;;;;;;;1.24;85.15;100859.75;5077211;28;20077;-80
2021/01/03 08:17:21;;;;;;;12.43;7.53;;;;;;;1.30;85.81;100871.84;5078706;28;20024;-80
2021/01/03 08:19:48;;;;;;;14.70;8.50;;;;;;;1.23;85.99;100858.03;5078104;28;20016;-80
2021/01/03 08:22:22;;;;;;;14.38;7.75;;;;;;;1.27;84.98;100856.44;5078962;28;20107;-80
2021/01/03 08:24:53;;;;;;;15.13;7.45;;;;;;;1.27;84.90;100864.09;5096316;28;20031;-80
2021/01/03 08:27:20;;;;;;;12.20;5.70;;;;;;;1.27;83.44;100864.09;5096095;28;20024;-80
2021/01/03 08:29:47;;;;;;;12.30;6.22;;;;;;;1.34;82.61;100865.97;5096326;28;20020;-80
2021/01/03 08:32:18;;;;;;;8.88;3.75;;;;;;;1.36;82.65;100867.72;5080197;28;20495;-80
2021/01/03 08:34:43;;;;;;;13.57;7.80;;;;;;;1.35;83.48;100867.69;5116396;22;20044;-74
2021/01/03 08:37:21;;;;;;;6.28;3.00;;;;;;;1.36;82.25;100871.97;5074610;28;20028;-74
2021/01/03 08:39:48;;;;;;;11.48;6.53;;;;;;;1.35;83.20;100872.78;5092045;28;20032;-74
2021/01/03 08:42:36;;;;;;;9.68;4.90;;;;;;;1.38;82.22;100871.16;5091659;28;20176;-74
2021/01/03 08:45:02;;;;;;;14.18;7.13;;;;;;;1.35;82.82;100878.75;5091492;28;20031;-73
2021/01/03 08:47:32;;;;;;;15.10;7.97;;;;;;;1.29;83.05;100873.53;5091283;28;20032;-73
2021/01/03 08:50:08;;;;;;;15.50;8.27;;;;;;;1.36;82.83;100872.84;5091377;28;20024;-73
2021/01/03 08:52:33;;;;;;;12.38;4.32;;;;;;;1.36;83.18;100874.53;5091269;28;20028;-73
2021/01/03 08:55:13;;;;;;;12.50;6.25;;;;;;;1.40;82.79;100876.31;5091846;28;20361;-73
2021/01/03 08:57:40;;;;;;;11.93;6.15;;;;;;;1.40;83.28;100885.69;5091645;28;20021;-73
2021/01/03 09:00:09;;;;;;;12.70;6.78;;;;;;;1.38;82.96;100881.38;5074450;28;20024;-73
2021/01/03 09:02:34;;;;;;;9.88;4.95;;;;;;;1.42;83.77;100879.78;5093586;28;20027;-73
2021/01/03 09:05:02;;;;;;;15.38;8.15;;;;;;;1.38;84.18;100883.09;5094856;28;20032;-73
2021/01/03 09:07:31;;;;;;;11.85;6.07;;;;;;;1.39;84.13;100889.94;5094794;28;20023;-73
2021/01/03 09:09:59;;;;;;;16.13;8.18;;;;;;;1.40;84.13;100891.66;5094868;28;20042;-73
2021/01/03 09:12:37;;;;;;;11.38;4.72;;;;;;;1.49;83.77;100888.47;5078077;28;20027;-73
2021/01/03 09:15:05;;;;;;;14.52;8.48;;;;;;;1.51;83.78;100895.34;5094881;28;20024;-73
2021/01/03 09:17:37;;;;;;;13.02;7.65;;;;;;;1.49;83.68;100897.00;5094637;28;20403;-73
2021/01/03 09:20:19;;;;;;;7.70;3.15;;;;;;;1.51;83.21;100900.47;5094609;28;20024;-73
2021/01/03 09:22:48;;;;;;;10.82;6.15;;;;;;;1.53;83.64;100909.00;5094668;28;20452;-73
2021/01/03 09:25:34;;;;;;;10.43;5.32;;;;;;;1.66;83.23;100904.19;5077597;28;20037;-73
2021/01/03 09:28:16;;;;;;;15.38;7.85;;;;;;;1.72;82.32;100901.78;5077943;28;20016;-73
2021/01/03 09:30:43;;;;;;;11.48;6.43;;;;;;;1.72;81.93;100901.78;5077569;28;20028;-73
2021/01/03 09:33:20;;;;;;;7.70;4.30;;;;;;;1.72;82.51;100901.78;5094354;28;20028;-74
2021/01/03 09:36:13;;;;;;;9.23;4.85;;;;;;;1.80;81.51;100901.13;5094124;28;20113;-74
2021/01/03 09:38:38;;;;;;;11.18;5.43;;;;;;;1.78;82.05;100905.34;5077363;28;20592;-74
2021/01/03 09:41:29;;;;;;;12.40;6.37;;;;;;;1.90;80.90;100898.78;5095731;28;20044;-74
2021/01/03 09:44:13;;;;;;;12.40;5.80;;;;;;;2.04;81.10;100898.25;5077089;28;20340;-74
2021/01/03 09:47:00;;;;;;;10.13;4.93;;;;;;;2.23;79.85;100896.97;5095222;28;20103;-74
2021/01/03 09:49:37;;;;;;;7.93;3.88;;;;;;;2.29;79.13;100893.66;5093850;28;20038;-74
2021/01/03 09:52:22;;;;;;;12.38;3.53;;;;;;;2.28;78.49;100889.41;5094492;28;20469;-74
2021/01/03 09:55:02;;;;;;;9.80;4.97;;;;;;;2.33;78.39;100887.78;5095758;28;20028;-74
2021/01/03 09:57:36;;;;;;;5.35;2.40;;;;;;;2.25;77.53;100885.06;5095144;28;20258;-74
2021/01/03 10:00:07;;;;;;;11.35;4.20;;;;;;;2.30;78.07;100885.16;5095051;28;20031;-73
2021/01/03 10:02:33;;;;;;;11.10;5.88;;;;;;;2.49;77.47;100884.72;5093809;28;20103;-74
2021/01/03 10:04:58;;;;;;;10.25;5.32;;;;;;;2.47;77.53;100882.94;5094334;28;20048;-74
2021/01/03 10:07:26;;;;;;;7.72;3.33;;;;;;;2.33;76.14;100884.34;5093808;28;20026;-74
2021/01/03 10:09:57;;;;;;;10.50;5.40;;;;;;;2.33;76.53;100886.91;5093740;28;20081;-75
2021/01/03 10:12:36;;;;;;;10.98;5.13;;;;;;;2.35;76.36;100880.13;5093505;28;20035;-74
2021/01/03 10:15:12;;;;;;;10.25;5.15;;;;;;;2.37;76.63;100879.34;5093538;28;20480;-74
2021/01/03 10:17:43;;;;;;;6.60;2.47;;;;;;;2.42;76.13;100874.31;5094839;28;20035;-74
2021/01/03 10:20:33;;;;;;;9.82;5.55;;;;;;;2.34;76.74;100886.06;5076639;28;20484;-74
2021/01/03 10:22:58;;;;;;;9.75;4.65;;;;;;;2.23;75.95;100870.50;5093914;28;20024;-74
2021/01/03 10:25:24;;;;;;;6.43;2.72;;;;;;;2.24;76.99;100873.09;5093224;28;20055;-74
2021/01/03 10:28:13;;;;;;;7.20;3.17;;;;;;;2.27;75.88;100869.72;5093130;28;20055;-74
2021/01/03 10:30:39;;;;;;;7.47;3.90;;;;;;;2.53;75.81;100873.69;5076176;28;20032;-74
2021/01/03 10:33:05;;;;;;;8.00;3.90;;;;;;;2.63;76.12;100874.72;5076012;28;20141;-74
2021/01/03 10:35:30;;;;;;;6.07;2.53;;;;;;;2.44;74.51;100870.09;5093089;28;20111;-75
2021/01/03 10:37:56;;;;;;;3.40;1.38;;;;;;;2.60;75.01;100877.22;5093181;28;20395;-74
2021/01/03 10:40:21;;;;;;;6.20;2.97;;;;;;;2.68;73.93;100864.56;5076121;28;20028;-74
2021/01/03 10:42:51;;;;;;;5.95;2.95;;;;;;;2.67;73.85;100862.84;5092949;28;20031;-74
2021/01/03 10:45:18;;;;;;;6.07;2.92;;;;;;;2.58;74.42;100878.03;5092824;28;20112;-74
2021/01/03 10:47:44;;;;;;;4.90;1.70;;;;;;;2.65;73.76;100877.28;5076591;28;20026;-74
2021/01/03 10:50:11;;;;;;;5.30;2.42;;;;;;;2.66;73.32;100868.81;5075803;28;20019;-74
2021/01/03 10:52:36;;;;;;;3.92;1.50;;;;;;;2.64;74.69;100876.44;5092553;28;20031;-73
2021/01/03 10:55:02;;;;;;;5.15;2.13;;;;;;;2.64;74.85;100878.13;5094001;28;20426;-74
2021/01/03 10:57:27;;;;;;;5.80;2.38;;;;;;;2.42;75.17;100844.44;5092775;28;20031;-73
2021/01/03 10:59:53;;;;;;;6.22;2.63;;;;;;;2.38;76.00;100885.31;5094414;28;20019;-74
2021/01/03 11:02:19;;;;;;;5.82;2.55;;;;;;;2.39;76.57;100876.81;5093808;28;20027;-74
2021/01/03 11:04:44;;;;;;;7.80;2.70;;;;;;;2.29;76.61;100883.44;5093747;28;20028;-74
2021/01/03 11:07:09;;;;;;;4.20;1.80;;;;;;;2.27;76.70;100885.09;5092542;28;20024;-74
2021/01/03 11:09:35;;;;;;;6.07;1.88;;;;;;;2.23;75.49;100875.63;5092784;28;20034;-74
2021/01/03 11:12:07;;;;;;;4.10;1.85;;;;;;;2.23;75.79;100852.59;5092778;28;20469;-74
2021/01/03 11:14:32;;;;;;;4.80;2.00;;;;;;;2.21;76.69;100870.47;5093917;28;20495;-74
2021/01/03 11:16:57;;;;;;;5.90;2.17;;;;;;;2.15;77.80;100882.28;5092487;28;20020;-74
2021/01/03 11:19:23;;;;;;;5.55;2.17;;;;;;;2.19;77.30;100867.03;5092287;28;20107;-73
2021/01/03 11:21:56;;;;;;;5.68;1.88;;;;;;;2.20;77.33;100867.88;5092164;28;20016;-73
2021/01/03 11:24:21;;;;;;;5.72;2.65;;;;;;;2.19;76.74;100868.72;5091634;28;20032;-74
2021/01/03 11:26:46;;;;;;;3.53;1.80;;;;;;;2.17;76.86;100861.00;5093401;28;20081;-74
2021/01/03 11:29:17;;;;;;;4.18;1.77;;;;;;;2.19;77.60;100861.06;5093758;28;20031;-74
2021/01/03 11:31:46;;;;;;;3.38;1.00;;;;;;;2.14;77.41;100855.81;5075179;28;20468;-74
2021/01/03 11:34:15;;;;;;;4.32;1.88;;;;;;;2.10;77.38;100851.50;5091956;28;20039;-74
2021/01/03 11:36:46;;;;;;;4.78;1.83;;;;;;;2.12;77.25;100852.34;5075104;28;20030;-73
2021/01/03 11:39:11;;;;;;;8.05;2.15;;;;;;;2.12;78.01;100847.25;5091878;28;20028;-73